Borkenberge Airport

METAR EDDL TAF EDDL
8 °C
°C
-
°C
14m
Alter
03:04:07
LT
02:04
UTC
0 ft

1.000

2.000

3.000

4.000

5.000

FEW 2.100
VFR
<?= Yii::t('app', 'Wind direction') ?> <?= Yii::t('app', 'of'); ?>
300°
08:05
Sonne auf
82%
Luftfeuchtigkeit
Windscherung
Geschlossen/Schnee
RWY-Sichtweite
RWY Zustand
Vert. Sichtweite
Min. Sichtbarkeit
CAVOK
Trend
Korrektur
Besonderer Bericht
1032 hPa
QNH
METAR EDDL 040150Z AUTO 30005KT 9999 FEW021 08/05 Q1032 NOSIG
Wenige Wolken
3 kt
3 kt
03:00
VFR
5 kt
04:00
VFR
5 kt
05:00
VFR
5 kt
06:00
VFR
5 kt
07:00
VFR
3 kt
08:00
VFR
3 kt
09:00
VFR
3 kt
10 km+
Sichtweite
Keine
Wolkendecke
5 kt
Wind
metar-taf.com/EDLB

Metar-Taf.com

Visueller Decoder

Wir und Dritte verfolgen dein Internetverhalten auf unserer Website mit Cookies. Wenn du fortfährst, gehen wir davon aus, dass du mit unserer Cookie-Richtlinie einverstanden bist.